Time;durP1;ratioP1;P1;durP2;ratioP2;P2;SDS_P1;SDS_P2;PMS_P1;PMS_P2;Temp;Humidity;BMP_temperature;BMP_pressure;BME280_temperature;BME280_humidity;BME280_pressure;Samples;Min_cycle;Max_cycle;Signal;HPM_P1;HPM_P2
2022/09/08 00:02:09;;;;;;;29.23;24.52;;;;;;;24.84;56.22;100986.31;5081946;28;20066;-71
2022/09/08 00:04:34;;;;;;;27.30;24.58;;;;;;;24.89;55.85;100990.84;5084774;28;20392;-71
2022/09/08 00:07:01;;;;;;;35.75;25.23;;;;;;;24.85;55.67;100981.63;5082438;28;20033;-71
2022/09/08 00:09:30;;;;;;;27.63;24.65;;;;;;;24.88;55.55;100984.56;5082437;28;20135;-72
2022/09/08 00:12:01;;;;;;;29.77;24.20;;;;;;;24.93;55.83;100978.09;5082702;28;20063;-71
2022/09/08 00:14:31;;;;;;;26.88;22.45;;;;;;;24.91;55.49;100970.16;5064276;28;20043;-71
2022/09/08 00:16:57;;;;;;;30.70;25.02;;;;;;;24.98;55.39;100970.50;5081064;28;20028;-71
2022/09/08 00:19:23;;;;;;;30.60;24.15;;;;;;;24.95;55.85;100968.41;5084103;28;20055;-71
2022/09/08 00:21:49;;;;;;;31.48;25.33;;;;;;;24.94;55.70;100968.72;5063636;28;20277;-71
2022/09/08 00:24:14;;;;;;;30.02;24.33;;;;;;;24.97;55.36;100966.16;5082334;28;20124;-71
2022/09/08 00:26:40;;;;;;;28.05;25.20;;;;;;;24.96;55.37;100966.47;5092080;28;20515;-71
2022/09/08 00:29:06;;;;;;;26.88;24.08;;;;;;;24.97;55.61;100963.41;5092214;28;20035;-71
2022/09/08 00:31:35;;;;;;;30.55;24.45;;;;;;;24.93;55.65;100945.91;5088930;28;20579;-71
2022/09/08 00:34:01;;;;;;;28.77;25.70;;;;;;;24.92;55.61;100946.25;5066872;28;20462;-72
2022/09/08 00:36:27;;;;;;;28.55;25.75;;;;;;;24.95;55.15;100942.84;5080707;28;20051;-71
2022/09/08 00:38:53;;;;;;;33.80;25.70;;;;;;;24.98;55.27;100943.00;5082713;28;20035;-71
2022/09/08 00:41:20;;;;;;;28.50;25.45;;;;;;;24.90;55.46;100935.53;5073009;28;20032;-71
2022/09/08 00:43:58;;;;;;;32.03;25.77;;;;;;;24.89;55.67;100927.63;5072270;28;20046;-71
2022/09/08 00:46:41;;;;;;;29.05;26.13;;;;;;;24.94;55.29;100933.78;5074832;28;20121;-71
2022/09/08 00:49:17;;;;;;;30.67;27.33;;;;;;;24.87;55.68;100927.94;5091941;28;20056;-71
2022/09/08 00:51:47;;;;;;;33.30;26.75;;;;;;;24.88;55.46;100929.56;5072781;28;20028;-71
2022/09/08 00:54:16;;;;;;;35.33;27.52;;;;;;;24.88;55.65;100934.25;5091582;28;20036;-71
2022/09/08 00:56:45;;;;;;;32.30;25.67;;;;;;;24.88;55.59;100940.56;5091147;28;20526;-71
2022/09/08 00:59:17;;;;;;;30.97;26.77;;;;;;;24.91;55.34;100917.94;5091653;28;20024;-72
2022/09/08 01:01:46;;;;;;;32.05;26.63;;;;;;;24.91;55.47;100914.34;5091961;28;20551;-71
2022/09/08 01:04:12;;;;;;;34.42;25.77;;;;;;;24.84;55.55;100914.84;5091716;28;20435;-71
2022/09/08 01:12:53;;;;;;;30.83;26.92;;;;;;;24.91;55.14;100897.88;5091567;28;20147;-71
2022/09/08 01:15:25;;;;;;;32.08;27.02;;;;;;;24.83;55.50;100898.66;5091274;28;20071;-71
2022/09/08 01:17:53;;;;;;;31.33;26.90;;;;;;;24.85;55.32;100897.22;5091304;28;20028;-71
2022/09/08 01:20:24;;;;;;;38.92;28.33;;;;;;;24.87;55.38;100894.94;5091247;28;20062;-71
2022/09/08 01:23:11;;;;;;;31.52;28.20;;;;;;;24.89;55.51;100884.44;5090846;28;20048;-71
2022/09/08 01:26:10;;;;;;;34.72;27.73;;;;;;;24.87;55.34;100881.19;5091743;28;20396;-71
2022/09/08 01:28:42;;;;;;;30.98;26.73;;;;;;;24.85;55.40;100886.22;5091129;28;20054;-71
2022/09/08 01:31:08;;;;;;;30.88;26.42;;;;;;;24.84;55.54;100887.34;5090603;28;20036;-71
2022/09/08 01:33:34;;;;;;;31.42;27.15;;;;;;;24.83;55.52;100882.16;5072852;28;20036;-71
2022/09/08 01:36:07;;;;;;;32.10;28.17;;;;;;;24.81;55.73;100881.66;5091146;28;20043;-71
2022/09/08 01:38:33;;;;;;;31.42;27.73;;;;;;;24.83;55.61;100887.66;5090602;28;20042;-71
2022/09/08 01:40:59;;;;;;;33.63;28.88;;;;;;;24.82;55.73;100884.13;5090308;28;20067;-71
2022/09/08 01:43:25;;;;;;;32.47;28.98;;;;;;;24.81;55.89;100871.47;5091346;28;20107;-71
2022/09/08 01:45:50;;;;;;;31.35;27.95;;;;;;;24.88;55.72;100879.28;5090546;28;20048;-71
2022/09/08 01:48:16;;;;;;;33.25;29.10;;;;;;;24.85;55.77;100875.22;5089673;28;20120;-71
2022/09/08 01:50:42;;;;;;;33.97;28.13;;;;;;;24.90;55.67;100877.00;5081451;28;20032;-71
2022/09/08 01:53:11;;;;;;;31.40;27.65;;;;;;;24.90;55.54;100880.53;5089657;28;20504;-71
2022/09/08 01:55:36;;;;;;;31.88;28.42;;;;;;;24.92;55.60;100874.75;5091508;28;20036;-71
2022/09/08 01:58:05;;;;;;;31.40;28.15;;;;;;;24.93;55.68;100876.34;5090926;28;20568;-71
2022/09/08 02:00:31;;;;;;;32.63;27.38;;;;;;;24.96;55.50;100873.78;5090828;28;20033;-71
2022/09/08 02:02:56;;;;;;;32.53;28.63;;;;;;;24.99;55.29;100875.09;5080993;28;20068;-71
2022/09/08 02:05:23;;;;;;;37.97;28.55;;;;;;;25.04;55.24;100874.94;5070436;28;20037;-72
2022/09/08 02:07:49;;;;;;;31.58;28.13;;;;;;;25.15;55.01;100882.56;5070125;28;20033;-70
2022/09/08 02:10:20;;;;;;;32.28;28.90;;;;;;;25.16;54.83;100880.59;5071262;28;20065;-71
2022/09/08 02:12:46;;;;;;;35.90;29.85;;;;;;;25.09;54.97;100883.03;5070775;28;20037;-66
2022/09/08 02:15:11;;;;;;;36.40;30.58;;;;;;;25.17;54.83;100880.31;5070106;28;20055;-66
2022/09/08 02:17:36;;;;;;;34.95;29.90;;;;;;;25.18;54.83;100886.59;5070447;28;20032;-66
2022/09/08 02:20:03;;;;;;;33.60;29.38;;;;;;;25.20;54.30;100896.16;5070428;28;20094;-67
2022/09/08 02:22:28;;;;;;;33.38;29.95;;;;;;;25.17;54.59;100898.75;5070497;28;20044;-66
2022/09/08 02:24:53;;;;;;;35.65;30.08;;;;;;;25.10;54.42;100892.91;5070109;28;20032;-66
2022/09/08 02:27:19;;;;;;;31.85;28.52;;;;;;;24.86;55.86;100893.34;5070438;28;20037;-66
2022/09/08 02:29:45;;;;;;;33.80;27.95;;;;;;;24.89;56.15;100883.63;5070403;28;20032;-66
2022/09/08 02:32:10;;;;;;;32.35;27.98;;;;;;;24.50;57.67;100889.09;5080365;28;20036;-66
2022/09/08 02:34:35;;;;;;;29.13;23.05;;;;;;;23.18;60.30;100888.75;5090750;28;20035;-66
2022/09/08 02:37:01;;;;;;;25.75;20.33;;;;;;;22.94;61.45;100887.38;5090298;28;20082;-67
2022/09/08 02:39:26;;;;;;;14.63;12.68;;;;;;;22.21;64.95;100890.13;5090253;28;20106;-70
2022/09/08 02:41:53;;;;;;;17.25;7.50;;;;;;;21.81;68.99;100888.88;5090483;28;20538;-68
2022/09/08 02:44:18;;;;;;;27.83;6.82;;;;;;;22.14;65.97;100879.56;5090595;28;20036;-69
2022/09/08 02:46:44;;;;;;;19.83;9.27;;;;;;;22.48;65.05;100869.06;5090752;28;20517;-71
2022/09/08 02:49:10;;;;;;;20.10;10.15;;;;;;;23.00;63.02;100866.94;5090355;28;20036;-71
2022/09/08 02:51:36;;;;;;;21.30;10.77;;;;;;;23.43;61.74;100862.69;5090346;28;20529;-70
2022/09/08 02:54:01;;;;;;;18.70;12.05;;;;;;;23.48;61.52;100860.66;5090384;28;20507;-71
2022/09/08 02:56:27;;;;;;;24.27;12.00;;;;;;;23.37;62.25;100845.53;5090083;28;20038;-71
2022/09/08 02:58:54;;;;;;;23.38;11.80;;;;;;;23.45;62.17;100844.00;5090042;28;20035;-71
2022/09/08 03:01:20;;;;;;;22.52;11.20;;;;;;;23.46;61.86;100842.88;5090592;28;20060;-70
2022/09/08 03:03:46;;;;;;;16.92;10.18;;;;;;;23.64;61.49;100839.16;5076362;28;20033;-70
2022/09/08 03:06:11;;;;;;;19.38;10.90;;;;;;;23.60;61.73;100843.66;5073489;28;20043;-70
2022/09/08 03:08:37;;;;;;;25.02;11.20;;;;;;;23.55;62.47;100830.03;5073307;28;20032;-71
2022/09/08 03:11:03;;;;;;;24.63;11.18;;;;;;;23.76;61.41;100827.63;5073322;28;20036;-72
2022/09/08 03:13:29;;;;;;;25.52;11.45;;;;;;;23.81;61.23;100820.06;5074251;28;20098;-70
2022/09/08 03:15:55;;;;;;;21.45;10.48;;;;;;;23.80;61.58;100825.88;5073543;28;20040;-70
2022/09/08 03:18:20;;;;;;;17.95;9.88;;;;;;;23.72;61.75;100835.66;5073469;28;20420;-72
2022/09/08 03:20:46;;;;;;;20.80;10.32;;;;;;;23.80;61.92;100848.66;5073290;28;20048;-70
2022/09/08 03:23:19;;;;;;;21.13;9.15;;;;;;;23.28;62.78;100874.81;5073124;28;20044;-69
2022/09/08 03:25:45;;;;;;;26.48;10.95;;;;;;;23.10;63.06;100883.16;5073716;28;20025;-70
2022/09/08 03:28:19;;;;;;;18.40;10.95;;;;;;;22.92;63.27;100860.25;5074137;28;20111;-70
2022/09/08 03:30:45;;;;;;;17.15;11.70;;;;;;;22.99;63.28;100832.44;5055279;28;20455;-69
2022/09/08 03:33:10;;;;;;;17.25;11.35;;;;;;;22.92;63.42;100819.13;5091485;28;20040;-68
2022/09/08 03:35:36;;;;;;;17.75;11.02;;;;;;;23.46;61.36;100821.75;5093160;28;20376;-69
2022/09/08 03:38:01;;;;;;;18.50;12.30;;;;;;;23.48;61.83;100833.22;5093502;28;20108;-69
2022/09/08 03:40:27;;;;;;;21.73;10.93;;;;;;;23.61;60.93;100839.75;5093520;28;20036;-70
2022/09/08 03:42:53;;;;;;;19.35;10.70;;;;;;;23.59;61.44;100838.47;5093486;28;20037;-70
2022/09/08 03:45:18;;;;;;;20.73;10.93;;;;;;;23.59;61.59;100817.31;5093131;28;20502;-68
2022/09/08 03:47:45;;;;;;;22.15;11.43;;;;;;;23.50;61.66;100802.75;5093215;28;20032;-69
2022/09/08 03:50:12;;;;;;;20.90;11.40;;;;;;;23.57;62.08;100813.28;5093283;28;20514;-70
2022/09/08 03:52:37;;;;;;;20.80;12.10;;;;;;;23.67;62.11;100808.34;5093569;28;20031;-71
2022/09/08 03:55:05;;;;;;;24.60;10.63;;;;;;;23.70;62.00;100795.94;5093004;28;20411;-69
2022/09/08 03:57:30;;;;;;;18.35;11.07;;;;;;;23.70;61.95;100788.53;5092633;28;20064;-69
2022/09/08 03:59:57;;;;;;;17.83;11.32;;;;;;;23.72;62.29;100777.22;5092994;28;20114;-69
2022/09/08 04:02:24;;;;;;;24.50;11.50;;;;;;;23.82;61.48;100776.97;5072342;28;20122;-71
2022/09/08 04:04:51;;;;;;;15.85;10.90;;;;;;;23.86;61.53;100758.75;5092230;28;20313;-69
2022/09/08 04:07:18;;;;;;;20.35;12.07;;;;;;;23.78;61.29;100767.72;5069814;28;20040;-69
2022/09/08 04:09:44;;;;;;;26.67;11.35;;;;;;;23.82;61.38;100776.97;5082796;28;20027;-70
2022/09/08 04:12:10;;;;;;;16.48;11.13;;;;;;;23.34;63.07;100761.16;5092025;28;20124;-70
2022/09/08 04:14:36;;;;;;;22.52;11.68;;;;;;;23.57;62.27;100761.94;5090884;28;20032;-70
2022/09/08 04:17:01;;;;;;;21.42;12.88;;;;;;;23.59;62.58;100756.16;5092702;28;20046;-70
2022/09/08 04:19:27;;;;;;;21.95;11.93;;;;;;;23.48;62.90;100753.69;5092878;28;20605;-71
2022/09/08 04:21:53;;;;;;;23.27;12.52;;;;;;;23.65;62.50;100747.47;5092328;28;20044;-70
2022/09/08 04:24:19;;;;;;;22.55;11.98;;;;;;;23.61;61.98;100754.72;5074140;28;20528;-69
2022/09/08 04:26:45;;;;;;;23.38;12.35;;;;;;;23.59;62.67;100745.19;5092544;28;20170;-70
2022/09/08 04:29:10;;;;;;;30.33;13.63;;;;;;;23.71;62.31;100748.16;5092448;28;20090;-69
2022/09/08 04:31:36;;;;;;;28.00;12.82;;;;;;;23.64;61.98;100750.53;5092298;28;20456;-69
2022/09/08 04:34:03;;;;;;;25.45;12.27;;;;;;;23.64;62.26;100739.56;5092618;28;20040;-71
2022/09/08 04:36:28;;;;;;;22.90;12.43;;;;;;;23.68;62.45;100748.78;5092393;28;20138;-71
2022/09/08 04:38:55;;;;;;;22.40;12.60;;;;;;;23.72;62.07;100749.78;5091912;28;20295;-69
2022/09/08 04:41:21;;;;;;;23.65;10.95;;;;;;;23.60;62.47;100741.31;5090059;28;20052;-70
2022/09/08 04:43:46;;;;;;;22.40;12.82;;;;;;;23.74;62.06;100744.78;5084524;28;20036;-70
2022/09/08 04:46:14;;;;;;;21.73;12.70;;;;;;;23.51;62.27;100733.84;5079845;28;20048;-69
2022/09/08 04:48:41;;;;;;;22.02;11.57;;;;;;;23.62;62.02;100728.09;5061668;28;20085;-70
2022/09/08 04:51:09;;;;;;;20.10;11.80;;;;;;;23.62;61.85;100728.09;5081218;28;20033;-69
2022/09/08 04:53:36;;;;;;;23.35;12.20;;;;;;;23.67;61.52;100723.28;5086880;28;20313;-69
2022/09/08 04:56:03;;;;;;;22.48;11.88;;;;;;;23.55;62.11;100726.59;5084279;28;20028;-69
2022/09/08 04:58:30;;;;;;;19.13;12.38;;;;;;;23.61;62.36;100726.44;5086520;28;20092;-71
2022/09/08 05:01:03;;;;;;;19.17;13.02;;;;;;;23.73;62.01;100723.94;5091766;28;20162;-72
2022/09/08 05:03:28;;;;;;;17.58;11.43;;;;;;;23.77;61.63;100733.97;5086656;28;20059;-72
2022/09/08 05:05:54;;;;;;;20.88;12.63;;;;;;;23.73;61.71;100733.00;5086729;28;20048;-71
2022/09/08 05:08:19;;;;;;;26.08;14.27;;;;;;;23.79;61.83;100739.97;5091493;28;20036;-72
2022/09/08 05:10:47;;;;;;;27.08;12.88;;;;;;;23.81;61.76;100745.94;5089346;28;20024;-72
2022/09/08 05:13:13;;;;;;;20.92;13.02;;;;;;;23.85;61.29;100755.19;5091586;28;20076;-72
2022/09/08 05:15:38;;;;;;;26.73;13.75;;;;;;;23.80;61.66;100762.75;5091666;28;20085;-72
2022/09/08 05:18:04;;;;;;;23.40;14.18;;;;;;;23.83;61.61;100768.41;5073113;28;20496;-71
2022/09/08 05:20:29;;;;;;;18.98;13.00;;;;;;;23.94;61.55;100769.75;5071295;28;20039;-72
2022/09/08 05:22:55;;;;;;;25.40;14.20;;;;;;;23.94;61.15;100771.69;5071206;28;20059;-70
2022/09/08 05:25:21;;;;;;;22.30;14.75;;;;;;;24.01;61.35;100772.03;5071210;28;20483;-71
2022/09/08 05:27:48;;;;;;;27.27;14.35;;;;;;;24.01;61.06;100775.59;5075658;28;20020;-71
2022/09/08 05:30:14;;;;;;;25.88;14.05;;;;;;;24.00;60.89;100776.72;5091195;28;20115;-71
2022/09/08 05:32:39;;;;;;;21.30;12.07;;;;;;;22.89;64.40;100803.31;5078632;28;20123;-73
2022/09/08 05:35:07;;;;;;;19.17;10.88;;;;;;;22.57;65.38;100798.78;5091210;28;20044;-71
2022/09/08 05:37:33;;;;;;;22.08;11.25;;;;;;;22.84;64.16;100797.13;5092184;28;20039;-71
2022/09/08 05:39:58;;;;;;;20.35;11.80;;;;;;;22.71;64.35;100801.50;5091246;28;20408;-72
2022/09/08 05:42:24;;;;;;;16.27;11.15;;;;;;;23.00;63.58;100801.13;5091013;28;20043;-73
2022/09/08 05:44:49;;;;;;;25.48;11.50;;;;;;;22.90;63.60;100793.16;5083839;28;20033;-70
2022/09/08 05:47:14;;;;;;;21.73;11.68;;;;;;;23.06;62.59;100794.44;5086089;28;20483;-72
2022/09/08 05:49:40;;;;;;;22.17;11.63;;;;;;;23.37;62.42;100787.16;5083390;28;20036;-71
2022/09/08 05:52:05;;;;;;;26.52;12.38;;;;;;;23.33;62.36;100789.69;5079963;28;20396;-71
2022/09/08 05:54:31;;;;;;;19.13;12.48;;;;;;;23.51;61.78;100777.72;5082134;28;20039;-71
2022/09/08 05:56:57;;;;;;;20.13;12.02;;;;;;;23.41;62.00;100783.47;5079951;28;20055;-71
2022/09/08 05:59:22;;;;;;;19.98;11.50;;;;;;;23.45;62.31;100783.66;5080514;28;20040;-70
2022/09/08 06:01:48;;;;;;;17.17;12.32;;;;;;;23.65;61.03;100785.88;5080880;28;20038;-72
2022/09/08 06:04:15;;;;;;;16.30;11.35;;;;;;;23.86;61.14;100786.19;5079486;28;20031;-73
2022/09/08 06:06:40;;;;;;;21.77;12.15;;;;;;;23.89;61.26;100788.28;5081234;28;20428;-71
2022/09/08 06:09:07;;;;;;;16.25;11.98;;;;;;;23.32;62.07;100800.97;5080462;28;20028;-74
2022/09/08 06:11:34;;;;;;;21.10;12.40;;;;;;;23.38;62.83;100814.28;5058166;28;20047;-74
2022/09/08 06:14:01;;;;;;;18.83;10.13;;;;;;;23.46;62.11;100824.50;5075876;28;20494;-71
2022/09/08 06:16:27;;;;;;;21.42;9.55;;;;;;;23.24;62.45;100842.81;5068659;28;20051;-71
2022/09/08 06:18:53;;;;;;;14.18;8.07;;;;;;;23.07;63.58;100843.47;5069191;28;20041;-72
2022/09/08 06:21:23;;;;;;;20.60;8.82;;;;;;;22.40;65.19;100816.91;5073953;28;20048;-70
2022/09/08 06:23:51;;;;;;;15.48;7.30;;;;;;;22.87;62.77;100818.44;5075976;28;20036;-70
2022/09/08 06:26:52;;;;;;;16.08;7.93;;;;;;;22.56;64.53;100829.19;5075042;28;20377;-72
2022/09/08 06:29:24;;;;;;;13.57;6.20;;;;;;;22.48;64.46;100822.50;5070646;28;20520;-70
2022/09/08 06:32:01;;;;;;;12.75;5.97;;;;;;;21.92;66.77;100815.63;5077937;28;20036;-72
2022/09/08 06:34:34;;;;;;;15.63;6.65;;;;;;;22.24;64.77;100810.13;5073482;28;20035;-69
2022/09/08 06:37:07;;;;;;;14.43;7.07;;;;;;;22.65;63.52;100783.56;5070943;28;20479;-70
2022/09/08 06:39:57;;;;;;;13.68;7.40;;;;;;;22.42;64.33;100784.56;5085283;28;20047;-71
2022/09/08 06:43:02;;;;;;;10.35;6.88;;;;;;;22.64;63.63;100776.47;5080865;28;20581;-72
2022/09/08 06:45:36;;;;;;;12.30;6.63;;;;;;;22.87;62.65;100777.31;5037975;28;20143;-70
2022/09/08 06:48:21;;;;;;;12.63;7.25;;;;;;;22.89;62.80;100777.84;5038670;28;20037;-69
2022/09/08 06:51:20;;;;;;;17.13;8.45;;;;;;;22.89;62.74;100775.09;5032425;28;20036;-72
2022/09/08 06:53:54;;;;;;;16.60;9.75;;;;;;;23.23;61.38;100778.16;5035613;28;20029;-70
2022/09/08 06:56:26;;;;;;;13.10;9.07;;;;;;;23.36;61.52;100772.63;5033459;28;20448;-72
2022/09/08 06:59:02;;;;;;;11.52;8.77;;;;;;;23.33;61.45;100780.69;5032376;28;20030;-71
2022/09/08 07:02:15;;;;;;;18.65;9.05;;;;;;;22.86;63.09;100772.97;5029855;28;20099;-71
2022/09/08 07:04:57;;;;;;;21.23;10.00;;;;;;;23.11;62.39;100786.09;5009856;28;20084;-71
2022/09/08 07:07:52;;;;;;;14.20;9.20;;;;;;;22.73;63.48;100795.72;5010168;28;20069;-69
2022/09/08 07:10:25;;;;;;;13.77;9.45;;;;;;;22.67;64.70;100806.81;5010362;28;20116;-72
2022/09/08 07:13:22;;;;;;;13.75;8.93;;;;;;;22.68;63.66;100807.63;5009873;28;20179;-70
2022/09/08 07:16:12;;;;;;;16.27;8.77;;;;;;;22.55;64.47;100809.22;5009797;28;20038;-71
2022/09/08 07:18:56;;;;;;;20.13;7.88;;;;;;;22.67;63.67;100815.03;4973730;28;20038;-70
2022/09/08 07:21:33;;;;;;;13.60;7.20;;;;;;;22.54;63.88;100826.75;4987369;28;20318;-71
2022/09/08 07:24:01;;;;;;;13.45;6.80;;;;;;;21.99;65.87;100821.53;4973465;28;20065;-72
2022/09/08 07:26:37;;;;;;;13.50;7.47;;;;;;;22.29;65.17;100824.50;4989541;28;20080;-71
2022/09/08 07:29:18;;;;;;;12.98;7.38;;;;;;;22.30;65.28;100828.06;4988954;28;20490;-71
2022/09/08 07:31:47;;;;;;;14.55;8.23;;;;;;;22.35;64.41;100838.91;4990922;28;20049;-71
2022/09/08 07:34:20;;;;;;;12.50;8.83;;;;;;;22.33;65.06;100849.34;4990186;28;20050;-72
2022/09/08 07:37:11;;;;;;;13.77;8.27;;;;;;;22.91;63.64;100857.81;4989826;28;20066;-73
2022/09/08 07:39:51;;;;;;;11.93;8.90;;;;;;;23.09;63.10;100852.22;4990280;28;20045;-73
2022/09/08 07:42:16;;;;;;;11.95;8.55;;;;;;;23.19;62.11;100851.19;5026757;28;20616;-72
2022/09/08 07:44:43;;;;;;;10.95;7.30;;;;;;;22.59;64.39;100856.81;5027174;28;20056;-72
2022/09/08 07:47:33;;;;;;;10.48;6.68;;;;;;;22.96;62.75;100865.94;5029487;28;20033;-73
2022/09/08 07:51:02;;;;;;;11.25;6.78;;;;;;;23.18;61.98;100858.59;5028898;28;20045;-71
2022/09/08 07:53:47;;;;;;;12.40;6.80;;;;;;;23.08;62.49;100868.94;4969559;28;20039;-72
2022/09/08 07:56:17;;;;;;;13.07;6.18;;;;;;;23.20;62.19;100866.50;4997758;28;20045;-72
2022/09/08 07:58:55;;;;;;;11.18;6.18;;;;;;;23.36;61.58;100874.09;5009418;28;20141;-71
2022/09/08 08:01:47;;;;;;;15.70;6.70;;;;;;;23.27;62.53;100873.16;5009012;28;20069;-72
2022/09/08 08:04:55;;;;;;;8.90;6.47;;;;;;;23.37;61.36;100875.72;4913210;29;20051;-72
2022/09/08 08:07:53;;;;;;;13.20;6.85;;;;;;;23.57;61.61;100890.09;4856083;29;20049;-72
2022/09/08 08:10:29;;;;;;;10.30;7.13;;;;;;;23.49;61.82;100889.72;4849829;29;20102;-74
2022/09/08 08:13:15;;;;;;;13.00;8.35;;;;;;;23.49;61.67;100891.63;4857083;29;20050;-72
2022/09/08 08:15:46;;;;;;;11.00;8.45;;;;;;;23.56;61.44;100886.53;4854979;29;20060;-72
2022/09/08 08:18:33;;;;;;;11.38;7.75;;;;;;;23.62;61.37;100892.72;4859177;29;20045;-72
2022/09/08 08:21:16;;;;;;;12.20;8.95;;;;;;;23.59;61.35;100894.13;4858665;29;20038;-73
2022/09/08 08:23:54;;;;;;;15.40;9.45;;;;;;;23.66;61.62;100891.78;4857856;29;20053;-74
2022/09/08 08:26:40;;;;;;;15.57;9.40;;;;;;;23.54;61.76;100902.50;4855927;29;20522;-73
2022/09/08 08:29:20;;;;;;;14.02;9.93;;;;;;;23.55;62.09;100899.44;4856812;29;20042;-73
2022/09/08 08:31:56;;;;;;;16.55;11.80;;;;;;;23.55;61.95;100893.97;4876115;29;20064;-72
2022/09/08 08:34:25;;;;;;;18.67;10.95;;;;;;;23.69;61.36;100902.13;4883202;29;20129;-74
2022/09/08 08:36:57;;;;;;;17.90;10.75;;;;;;;23.80;60.77;100902.72;4885408;29;20053;-73
2022/09/08 08:39:24;;;;;;;21.80;12.35;;;;;;;23.67;62.00;100906.31;4882463;29;20041;-74
2022/09/08 08:42:03;;;;;;;16.17;12.05;;;;;;;23.63;61.77;100906.13;4927592;28;20075;-76
2022/09/08 08:44:54;;;;;;;19.35;12.95;;;;;;;23.69;60.98;100904.06;5043293;28;20049;-75
2022/09/08 08:47:33;;;;;;;13.90;12.00;;;;;;;23.65;61.91;100916.78;5045660;28;20045;-74
2022/09/08 08:49:59;;;;;;;15.65;12.05;;;;;;;23.79;61.55;100909.31;5046763;28;20021;-74
2022/09/08 08:52:50;;;;;;;13.32;10.73;;;;;;;23.77;61.29;100903.31;5048716;28;20607;-74
2022/09/08 08:55:37;;;;;;;16.23;11.90;;;;;;;23.51;61.85;100895.69;5046642;28;20286;-73
2022/09/08 08:58:40;;;;;;;14.63;11.00;;;;;;;23.59;61.76;100898.84;5044085;28;20029;-72
2022/09/08 09:01:17;;;;;;;13.70;10.30;;;;;;;23.79;61.01;100904.63;5042357;28;20384;-73
2022/09/08 09:04:17;;;;;;;16.48;11.45;;;;;;;23.50;61.33;100901.50;5042592;28;20119;-73
2022/09/08 09:07:20;;;;;;;12.13;10.82;;;;;;;23.57;61.54;100899.13;5043891;28;20055;-73
2022/09/08 09:10:20;;;;;;;14.45;10.55;;;;;;;23.72;61.21;100904.28;5042594;28;20088;-75
2022/09/08 09:13:11;;;;;;;23.58;11.40;;;;;;;23.20;62.74;100902.97;5020271;28;20033;-75
2022/09/08 09:15:54;;;;;;;12.95;10.23;;;;;;;23.57;62.29;100888.16;5018155;28;20055;-74
2022/09/08 09:18:33;;;;;;;12.82;9.98;;;;;;;23.75;61.34;100898.16;5016817;28;20045;-71
2022/09/08 09:21:09;;;;;;;16.02;9.38;;;;;;;23.92;60.84;100898.28;5018425;28;20124;-72
2022/09/08 09:23:57;;;;;;;11.65;8.43;;;;;;;23.64;61.62;100896.78;5017060;28;20064;-74
2022/09/08 09:26:26;;;;;;;9.57;8.45;;;;;;;23.83;61.34;100900.16;5016398;28;20052;-72
2022/09/08 09:29:04;;;;;;;11.90;8.43;;;;;;;24.01;60.93;100899.16;5017682;28;20038;-73
2022/09/08 09:31:54;;;;;;;11.65;9.30;;;;;;;24.22;60.70;100888.47;5016558;28;20173;-72
2022/09/08 09:35:02;;;;;;;10.15;8.70;;;;;;;24.17;60.39;100892.19;5018890;28;20052;-72
2022/09/08 09:37:57;;;;;;;13.23;8.63;;;;;;;24.26;60.42;100884.78;5002826;28;20103;-73
2022/09/08 09:40:32;;;;;;;10.27;8.32;;;;;;;24.27;61.01;100888.38;5008377;28;20053;-74
2022/09/08 09:43:06;;;;;;;10.75;7.82;;;;;;;24.29;60.53;100888.84;5005177;28;20042;-74
2022/09/08 09:45:55;;;;;;;12.10;7.82;;;;;;;23.95;60.37;100881.19;5006617;28;20045;-74
2022/09/08 09:48:44;;;;;;;9.18;8.25;;;;;;;23.67;61.44;100889.84;5005336;28;20049;-73
2022/09/08 09:51:21;;;;;;;11.30;8.07;;;;;;;23.98;60.12;100885.25;5043838;28;20048;-73
2022/09/08 09:54:06;;;;;;;10.85;7.40;;;;;;;23.62;60.84;100889.97;5046864;28;20088;-73
2022/09/08 09:56:40;;;;;;;7.97;6.38;;;;;;;23.65;60.98;100878.38;5045755;28;20025;-73
2022/09/08 09:59:17;;;;;;;8.82;6.50;;;;;;;23.46;61.66;100882.13;5044970;28;20021;-73
2022/09/08 10:02:08;;;;;;;12.35;6.55;;;;;;;23.69;60.40;100880.19;5046905;28;20045;-73
2022/09/08 10:04:52;;;;;;;;;;;;;;;23.84;60.61;100877.06;5051953;28;20049;-72
2022/09/08 10:07:23;;;;;;;10.77;6.38;;;;;;;24.23;61.17;100868.97;5050939;28;19975;-74
2022/09/08 10:09:48;;;;;;;9.40;6.90;;;;;;;24.32;59.87;100867.06;5039758;28;20049;-74
2022/09/08 10:12:38;;;;;;;7.28;6.18;;;;;;;24.53;59.11;100866.50;5049755;28;20467;-72
2022/09/08 10:15:23;;;;;;;9.63;6.57;;;;;;;24.05;60.16;100869.16;5045533;28;20045;-73
2022/09/08 10:18:17;;;;;;;6.93;5.15;;;;;;;23.93;60.19;100857.91;5035101;28;20508;-75
2022/09/08 10:21:10;;;;;;;7.00;5.65;;;;;;;24.31;60.01;100857.19;4990783;28;20057;-72
2022/09/08 10:23:44;;;;;;;5.97;5.20;;;;;;;24.24;59.23;100859.59;5028894;28;20041;-73
2022/09/08 10:26:43;;;;;;;7.20;5.50;;;;;;;23.75;60.14;100861.66;5012310;28;20406;-73
2022/09/08 10:29:55;;;;;;;7.75;5.38;;;;;;;23.99;60.40;100854.72;5021939;28;20033;-71
2022/09/08 10:32:35;;;;;;;8.95;6.55;;;;;;;23.52;61.58;100849.88;5019629;28;20133;-74
2022/09/08 10:35:19;;;;;;;8.48;6.25;;;;;;;24.04;60.36;100848.31;5011981;28;20065;-71
2022/09/08 10:38:19;;;;;;;6.95;6.18;;;;;;;24.16;59.83;100846.63;5010504;28;20045;-72
2022/09/08 10:40:56;;;;;;;12.13;7.28;;;;;;;24.33;59.94;100863.16;4998155;28;20136;-73
2022/09/08 10:43:36;;;;;;;9.48;8.15;;;;;;;23.66;60.45;100855.31;4997420;28;20038;-73
2022/09/08 10:46:39;;;;;;;10.23;8.30;;;;;;;24.25;60.07;100852.16;4997193;28;20090;-74
2022/09/08 10:49:23;;;;;;;9.65;7.63;;;;;;;24.58;59.69;100853.44;5022729;28;20053;-73
2022/09/08 10:51:58;;;;;;;9.68;7.90;;;;;;;24.64;59.18;100854.09;5030543;28;20490;-71
2022/09/08 10:54:56;;;;;;;11.48;8.52;;;;;;;24.44;60.20;100852.72;5031822;28;20434;-71
2022/09/08 10:57:33;;;;;;;10.60;8.75;;;;;;;25.07;58.78;100844.84;5024253;28;20042;-73
2022/09/08 11:00:15;;;;;;;11.93;9.15;;;;;;;24.72;58.92;100845.91;5042104;28;20033;-72
2022/09/08 11:03:11;;;;;;;12.30;9.25;;;;;;;24.96;58.43;100838.03;5046432;28;20619;-73
2022/09/08 11:05:56;;;;;;;12.38;9.40;;;;;;;25.08;57.59;100849.22;5039588;28;20048;-72
2022/09/08 11:08:39;;;;;;;10.15;9.05;;;;;;;25.39;58.25;100840.84;5033998;28;20078;-74
2022/09/08 11:11:39;;;;;;;12.02;10.23;;;;;;;25.85;57.21;100842.91;5042942;28;20052;-73
2022/09/08 11:14:35;;;;;;;12.77;8.70;;;;;;;24.78;57.90;100841.91;5053521;28;20036;-73
2022/09/08 11:17:12;;;;;;;12.40;9.18;;;;;;;24.81;58.33;100838.50;5038883;28;20172;-73
2022/09/08 11:19:41;;;;;;;17.05;9.43;;;;;;;25.24;57.43;100844.06;5040532;28;20528;-71
2022/09/08 11:22:18;;;;;;;10.20;8.60;;;;;;;24.79;57.90;100838.00;5048963;28;20040;-72
2022/09/08 11:24:53;;;;;;;15.15;8.98;;;;;;;25.15;57.02;100841.31;5088413;28;20043;-70
2022/09/08 11:27:36;;;;;;;10.75;8.48;;;;;;;25.67;56.07;100846.84;5082659;28;20025;-71
2022/09/08 11:30:20;;;;;;;15.23;9.00;;;;;;;25.82;56.96;100855.41;5076383;28;20051;-74
2022/09/08 11:33:21;;;;;;;13.20;8.43;;;;;;;25.48;56.20;100846.34;5076505;28;20388;-73
2022/09/08 11:36:08;;;;;;;13.15;7.25;;;;;;;25.59;56.74;100847.66;5010013;28;20076;-73
2022/09/08 11:38:53;;;;;;;10.93;7.32;;;;;;;26.12;55.66;100847.28;5021085;28;20037;-73
2022/09/08 11:41:29;;;;;;;14.10;7.20;;;;;;;26.44;54.72;100850.22;5011461;28;20057;-73
2022/09/08 11:44:26;;;;;;;6.75;6.05;;;;;;;25.99;55.69;100841.59;5021447;28;20033;-75
2022/09/08 11:47:05;;;;;;;14.80;6.82;;;;;;;26.45;54.60;100837.25;5003746;28;20050;-73
2022/09/08 11:49:47;;;;;;;14.25;6.00;;;;;;;26.84;52.68;100834.97;5006160;28;20087;-72
2022/09/08 11:52:48;;;;;;;8.68;5.03;;;;;;;25.94;52.69;100832.72;5006646;28;20073;-72
2022/09/08 11:55:31;;;;;;;5.88;5.03;;;;;;;26.40;53.89;100829.97;4987407;28;20205;-73